sensor_id;sensor_type;location;lat;lon;timestamp;P1;durP1;ratioP1;P2;durP2;ratioP2
22298;SDS011;11317;51.072;17.036;2022-11-18T00:02:14;10.13;;;5.03;;
22298;SDS011;11317;51.072;17.036;2022-11-18T00:04:40;9.13;;;5.05;;
22298;SDS011;11317;51.072;17.036;2022-11-18T00:07:06;11.10;;;6.05;;
22298;SDS011;11317;51.072;17.036;2022-11-18T00:09:32;9.27;;;5.43;;
22298;SDS011;11317;51.072;17.036;2022-11-18T00:11:58;9.95;;;5.40;;
22298;SDS011;11317;51.072;17.036;2022-11-18T00:14:43;7.43;;;4.95;;
22298;SDS011;11317;51.072;17.036;2022-11-18T00:17:09;8.60;;;4.53;;
22298;SDS011;11317;51.072;17.036;2022-11-18T00:19:35;8.30;;;4.68;;
22298;SDS011;11317;51.072;17.036;2022-11-18T00:22:06;9.52;;;4.63;;
22298;SDS011;11317;51.072;17.036;2022-11-18T00:24:35;9.95;;;5.80;;
22298;SDS011;11317;51.072;17.036;2022-11-18T00:27:01;9.98;;;5.65;;
22298;SDS011;11317;51.072;17.036;2022-11-18T00:29:27;9.20;;;5.05;;
22298;SDS011;11317;51.072;17.036;2022-11-18T00:31:55;8.15;;;4.63;;
22298;SDS011;11317;51.072;17.036;2022-11-18T00:34:21;9.82;;;4.70;;
22298;SDS011;11317;51.072;17.036;2022-11-18T00:36:48;8.82;;;5.50;;
22298;SDS011;11317;51.072;17.036;2022-11-18T00:39:14;7.63;;;5.07;;
22298;SDS011;11317;51.072;17.036;2022-11-18T00:41:42;8.50;;;5.00;;
22298;SDS011;11317;51.072;17.036;2022-11-18T00:44:27;8.73;;;4.95;;
22298;SDS011;11317;51.072;17.036;2022-11-18T00:46:53;9.35;;;5.07;;
22298;SDS011;11317;51.072;17.036;2022-11-18T00:49:19;11.57;;;5.63;;
22298;SDS011;11317;51.072;17.036;2022-11-18T00:51:45;8.73;;;5.15;;
22298;SDS011;11317;51.072;17.036;2022-11-18T00:54:11;8.52;;;4.55;;
22298;SDS011;11317;51.072;17.036;2022-11-18T00:56:37;8.50;;;4.57;;
22298;SDS011;11317;51.072;17.036;2022-11-18T00:59:02;7.80;;;4.20;;
22298;SDS011;11317;51.072;17.036;2022-11-18T01:01:28;8.35;;;4.68;;
22298;SDS011;11317;51.072;17.036;2022-11-18T01:03:54;10.25;;;5.40;;
22298;SDS011;11317;51.072;17.036;2022-11-18T01:06:20;9.27;;;5.32;;
22298;SDS011;11317;51.072;17.036;2022-11-18T01:08:46;8.60;;;4.72;;
22298;SDS011;11317;51.072;17.036;2022-11-18T01:11:13;6.35;;;4.18;;
22298;SDS011;11317;51.072;17.036;2022-11-18T01:13:57;8.48;;;4.70;;
22298;SDS011;11317;51.072;17.036;2022-11-18T01:16:24;9.65;;;4.78;;
22298;SDS011;11317;51.072;17.036;2022-11-18T01:18:51;9.48;;;5.40;;
22298;SDS011;11317;51.072;17.036;2022-11-18T01:21:17;10.52;;;5.15;;
22298;SDS011;11317;51.072;17.036;2022-11-18T01:23:43;11.27;;;5.65;;
22298;SDS011;11317;51.072;17.036;2022-11-18T01:26:10;10.40;;;4.82;;
22298;SDS011;11317;51.072;17.036;2022-11-18T01:28:37;9.20;;;5.13;;
22298;SDS011;11317;51.072;17.036;2022-11-18T01:31:14;8.10;;;5.10;;
22298;SDS011;11317;51.072;17.036;2022-11-18T01:33:41;7.95;;;4.65;;
22298;SDS011;11317;51.072;17.036;2022-11-18T01:36:17;8.60;;;4.72;;
22298;SDS011;11317;51.072;17.036;2022-11-18T01:38:51;8.38;;;4.85;;
22298;SDS011;11317;51.072;17.036;2022-11-18T01:41:18;10.80;;;5.82;;
22298;SDS011;11317;51.072;17.036;2022-11-18T01:44:52;8.80;;;5.22;;
22298;SDS011;11317;51.072;17.036;2022-11-18T01:46:50;8.07;;;5.22;;
22298;SDS011;11317;51.072;17.036;2022-11-18T01:49:16;9.43;;;5.05;;
22298;SDS011;11317;51.072;17.036;2022-11-18T01:51:50;9.98;;;5.30;;
22298;SDS011;11317;51.072;17.036;2022-11-18T01:54:30;10.88;;;5.75;;
22298;SDS011;11317;51.072;17.036;2022-11-18T01:57:03;8.10;;;4.88;;
22298;SDS011;11317;51.072;17.036;2022-11-18T01:59:33;10.07;;;5.35;;
22298;SDS011;11317;51.072;17.036;2022-11-18T02:02:02;11.82;;;5.43;;
22298;SDS011;11317;51.072;17.036;2022-11-18T02:04:33;9.38;;;5.53;;
22298;SDS011;11317;51.072;17.036;2022-11-18T02:06:59;10.82;;;5.15;;
22298;SDS011;11317;51.072;17.036;2022-11-18T02:09:25;8.85;;;4.65;;
22298;SDS011;11317;51.072;17.036;2022-11-18T02:11:50;10.48;;;5.55;;
22298;SDS011;11317;51.072;17.036;2022-11-18T02:14:23;10.93;;;5.80;;
22298;SDS011;11317;51.072;17.036;2022-11-18T02:16:59;9.23;;;5.40;;
22298;SDS011;11317;51.072;17.036;2022-11-18T02:24:58;9.30;;;5.88;;
22298;SDS011;11317;51.072;17.036;2022-11-18T02:30:38;8.55;;;4.80;;
22298;SDS011;11317;51.072;17.036;2022-11-18T02:33:28;7.63;;;5.20;;
22298;SDS011;11317;51.072;17.036;2022-11-18T02:39:15;11.10;;;5.28;;
22298;SDS011;11317;51.072;17.036;2022-11-18T02:41:45;8.15;;;4.72;;
22298;SDS011;11317;51.072;17.036;2022-11-18T02:44:14;10.77;;;5.20;;
22298;SDS011;11317;51.072;17.036;2022-11-18T02:46:42;11.40;;;6.53;;
22298;SDS011;11317;51.072;17.036;2022-11-18T02:49:13;8.20;;;4.93;;
22298;SDS011;11317;51.072;17.036;2022-11-18T02:51:44;12.68;;;5.78;;
22298;SDS011;11317;51.072;17.036;2022-11-18T02:54:11;11.07;;;6.10;;
22298;SDS011;11317;51.072;17.036;2022-11-18T02:56:39;12.18;;;6.00;;
22298;SDS011;11317;51.072;17.036;2022-11-18T02:59:06;9.40;;;6.28;;
22298;SDS011;11317;51.072;17.036;2022-11-18T03:01:33;8.45;;;5.28;;
22298;SDS011;11317;51.072;17.036;2022-11-18T03:04:01;11.43;;;5.68;;
22298;SDS011;11317;51.072;17.036;2022-11-18T03:11:47;11.52;;;6.18;;
22298;SDS011;11317;51.072;17.036;2022-11-18T03:16:44;10.93;;;5.70;;
22298;SDS011;11317;51.072;17.036;2022-11-18T03:22:04;12.32;;;6.05;;
22298;SDS011;11317;51.072;17.036;2022-11-18T03:24:39;11.90;;;5.93;;
22298;SDS011;11317;51.072;17.036;2022-11-18T03:27:09;12.35;;;5.80;;
22298;SDS011;11317;51.072;17.036;2022-11-18T03:29:39;11.35;;;6.13;;
22298;SDS011;11317;51.072;17.036;2022-11-18T03:32:09;9.90;;;5.95;;
22298;SDS011;11317;51.072;17.036;2022-11-18T03:37:11;7.72;;;5.45;;
22298;SDS011;11317;51.072;17.036;2022-11-18T03:39:41;10.98;;;5.60;;
22298;SDS011;11317;51.072;17.036;2022-11-18T03:42:16;10.57;;;5.78;;
22298;SDS011;11317;51.072;17.036;2022-11-18T03:45:01;10.45;;;5.75;;
22298;SDS011;11317;51.072;17.036;2022-11-18T03:47:58;10.30;;;5.85;;
22298;SDS011;11317;51.072;17.036;2022-11-18T03:50:37;10.32;;;6.03;;
22298;SDS011;11317;51.072;17.036;2022-11-18T03:53:07;10.88;;;5.28;;
22298;SDS011;11317;51.072;17.036;2022-11-18T03:55:36;11.43;;;5.60;;
22298;SDS011;11317;51.072;17.036;2022-11-18T03:58:10;9.85;;;5.57;;
22298;SDS011;11317;51.072;17.036;2022-11-18T04:00:43;13.00;;;6.35;;
22298;SDS011;11317;51.072;17.036;2022-11-18T04:03:11;10.02;;;5.78;;
22298;SDS011;11317;51.072;17.036;2022-11-18T04:05:38;12.40;;;6.07;;
22298;SDS011;11317;51.072;17.036;2022-11-18T04:08:07;11.00;;;6.28;;
22298;SDS011;11317;51.072;17.036;2022-11-18T04:13:30;12.02;;;6.15;;
22298;SDS011;11317;51.072;17.036;2022-11-18T04:15:59;12.85;;;6.50;;
22298;SDS011;11317;51.072;17.036;2022-11-18T04:18:25;12.02;;;6.63;;
22298;SDS011;11317;51.072;17.036;2022-11-18T04:20:51;12.20;;;6.55;;
22298;SDS011;11317;51.072;17.036;2022-11-18T04:23:17;13.70;;;6.53;;
22298;SDS011;11317;51.072;17.036;2022-11-18T04:25:43;10.48;;;6.53;;
22298;SDS011;11317;51.072;17.036;2022-11-18T04:28:10;13.35;;;6.45;;
22298;SDS011;11317;51.072;17.036;2022-11-18T04:30:37;12.43;;;6.75;;
22298;SDS011;11317;51.072;17.036;2022-11-18T04:33:04;14.52;;;7.90;;
22298;SDS011;11317;51.072;17.036;2022-11-18T04:35:30;18.23;;;7.50;;
22298;SDS011;11317;51.072;17.036;2022-11-18T04:37:56;14.85;;;7.72;;
22298;SDS011;11317;51.072;17.036;2022-11-18T04:40:22;14.02;;;7.03;;
22298;SDS011;11317;51.072;17.036;2022-11-18T04:42:48;15.75;;;7.53;;
22298;SDS011;11317;51.072;17.036;2022-11-18T04:45:14;18.23;;;8.02;;
22298;SDS011;11317;51.072;17.036;2022-11-18T04:47:40;15.82;;;7.80;;
22298;SDS011;11317;51.072;17.036;2022-11-18T04:50:06;14.20;;;7.95;;
22298;SDS011;11317;51.072;17.036;2022-11-18T04:52:32;13.45;;;7.50;;
22298;SDS011;11317;51.072;17.036;2022-11-18T04:54:58;19.27;;;7.95;;
22298;SDS011;11317;51.072;17.036;2022-11-18T04:57:24;16.33;;;7.93;;
22298;SDS011;11317;51.072;17.036;2022-11-18T04:59:50;15.95;;;8.25;;
22298;SDS011;11317;51.072;17.036;2022-11-18T05:02:16;15.02;;;8.40;;
22298;SDS011;11317;51.072;17.036;2022-11-18T05:04:42;17.90;;;7.78;;
22298;SDS011;11317;51.072;17.036;2022-11-18T05:07:11;18.20;;;8.35;;
22298;SDS011;11317;51.072;17.036;2022-11-18T05:09:39;16.23;;;7.88;;
22298;SDS011;11317;51.072;17.036;2022-11-18T05:12:05;15.73;;;8.40;;
22298;SDS011;11317;51.072;17.036;2022-11-18T05:14:49;21.08;;;8.88;;
22298;SDS011;11317;51.072;17.036;2022-11-18T05:17:16;22.33;;;8.63;;
22298;SDS011;11317;51.072;17.036;2022-11-18T05:19:42;18.38;;;9.07;;
22298;SDS011;11317;51.072;17.036;2022-11-18T05:22:07;17.45;;;8.45;;
22298;SDS011;11317;51.072;17.036;2022-11-18T05:24:33;17.13;;;8.82;;
22298;SDS011;11317;51.072;17.036;2022-11-18T05:26:59;22.45;;;8.75;;
22298;SDS011;11317;51.072;17.036;2022-11-18T05:29:25;16.65;;;8.30;;
22298;SDS011;11317;51.072;17.036;2022-11-18T05:31:51;17.25;;;8.32;;
22298;SDS011;11317;51.072;17.036;2022-11-18T05:34:17;16.85;;;7.72;;
22298;SDS011;11317;51.072;17.036;2022-11-18T05:36:43;16.95;;;8.48;;
22298;SDS011;11317;51.072;17.036;2022-11-18T05:39:09;15.27;;;8.07;;
22298;SDS011;11317;51.072;17.036;2022-11-18T05:41:35;15.48;;;6.97;;
22298;SDS011;11317;51.072;17.036;2022-11-18T05:44:20;16.48;;;8.57;;
22298;SDS011;11317;51.072;17.036;2022-11-18T05:46:46;16.02;;;6.95;;
22298;SDS011;11317;51.072;17.036;2022-11-18T05:49:12;14.30;;;7.47;;
22298;SDS011;11317;51.072;17.036;2022-11-18T05:51:38;15.52;;;7.15;;
22298;SDS011;11317;51.072;17.036;2022-11-18T05:54:06;16.20;;;7.35;;
22298;SDS011;11317;51.072;17.036;2022-11-18T05:56:40;14.00;;;6.90;;
22298;SDS011;11317;51.072;17.036;2022-11-18T05:59:09;15.57;;;7.57;;
22298;SDS011;11317;51.072;17.036;2022-11-18T06:04:43;19.67;;;8.02;;
22298;SDS011;11317;51.072;17.036;2022-11-18T06:07:20;12.77;;;6.32;;
22298;SDS011;11317;51.072;17.036;2022-11-18T06:09:53;17.92;;;7.65;;
22298;SDS011;11317;51.072;17.036;2022-11-18T06:12:23;16.70;;;8.30;;
22298;SDS011;11317;51.072;17.036;2022-11-18T06:15:05;14.50;;;7.25;;
22298;SDS011;11317;51.072;17.036;2022-11-18T06:17:43;15.75;;;7.50;;
22298;SDS011;11317;51.072;17.036;2022-11-18T06:20:12;12.23;;;6.40;;
22298;SDS011;11317;51.072;17.036;2022-11-18T06:22:39;13.70;;;7.05;;
22298;SDS011;11317;51.072;17.036;2022-11-18T06:25:05;15.90;;;6.90;;
22298;SDS011;11317;51.072;17.036;2022-11-18T06:27:31;16.17;;;7.57;;
22298;SDS011;11317;51.072;17.036;2022-11-18T06:29:58;17.73;;;7.07;;
22298;SDS011;11317;51.072;17.036;2022-11-18T06:32:24;15.20;;;7.47;;
22298;SDS011;11317;51.072;17.036;2022-11-18T06:34:50;14.63;;;7.18;;
22298;SDS011;11317;51.072;17.036;2022-11-18T06:37:17;18.50;;;7.57;;
22298;SDS011;11317;51.072;17.036;2022-11-18T06:39:47;15.20;;;7.63;;
22298;SDS011;11317;51.072;17.036;2022-11-18T06:42:13;15.85;;;8.15;;
22298;SDS011;11317;51.072;17.036;2022-11-18T06:44:57;14.07;;;7.07;;
22298;SDS011;11317;51.072;17.036;2022-11-18T06:47:23;17.63;;;8.20;;
22298;SDS011;11317;51.072;17.036;2022-11-18T06:49:49;17.05;;;7.60;;
22298;SDS011;11317;51.072;17.036;2022-11-18T06:52:15;21.02;;;7.63;;
22298;SDS011;11317;51.072;17.036;2022-11-18T06:54:41;17.73;;;7.90;;
22298;SDS011;11317;51.072;17.036;2022-11-18T06:57:07;19.73;;;7.93;;
22298;SDS011;11317;51.072;17.036;2022-11-18T06:59:33;18.00;;;8.20;;
22298;SDS011;11317;51.072;17.036;2022-11-18T07:01:59;15.15;;;8.23;;
22298;SDS011;11317;51.072;17.036;2022-11-18T07:04:25;16.33;;;8.60;;
22298;SDS011;11317;51.072;17.036;2022-11-18T07:06:51;18.85;;;8.27;;
22298;SDS011;11317;51.072;17.036;2022-11-18T07:09:17;23.13;;;8.63;;
22298;SDS011;11317;51.072;17.036;2022-11-18T07:11:43;16.55;;;8.32;;
22298;SDS011;11317;51.072;17.036;2022-11-18T07:14:09;21.23;;;9.88;;
22298;SDS011;11317;51.072;17.036;2022-11-18T07:16:35;16.55;;;8.88;;
22298;SDS011;11317;51.072;17.036;2022-11-18T07:19:06;19.00;;;8.68;;
22298;SDS011;11317;51.072;17.036;2022-11-18T07:21:33;22.52;;;9.93;;
22298;SDS011;11317;51.072;17.036;2022-11-18T07:23:59;24.23;;;9.65;;
22298;SDS011;11317;51.072;17.036;2022-11-18T07:26:25;24.75;;;9.73;;
22298;SDS011;11317;51.072;17.036;2022-11-18T07:28:52;20.80;;;9.93;;
22298;SDS011;11317;51.072;17.036;2022-11-18T07:31:18;22.13;;;10.40;;
22298;SDS011;11317;51.072;17.036;2022-11-18T07:33:45;22.65;;;10.98;;
22298;SDS011;11317;51.072;17.036;2022-11-18T07:36:15;16.38;;;8.85;;
22298;SDS011;11317;51.072;17.036;2022-11-18T07:38:43;17.70;;;8.40;;
22298;SDS011;11317;51.072;17.036;2022-11-18T07:43:36;20.58;;;9.15;;
22298;SDS011;11317;51.072;17.036;2022-11-18T07:48:42;17.70;;;10.00;;
22298;SDS011;11317;51.072;17.036;2022-11-18T07:51:09;18.23;;;8.80;;
22298;SDS011;11317;51.072;17.036;2022-11-18T07:53:35;16.40;;;8.18;;
22298;SDS011;11317;51.072;17.036;2022-11-18T07:56:01;18.63;;;8.30;;
22298;SDS011;11317;51.072;17.036;2022-11-18T07:58:27;19.13;;;9.00;;
22298;SDS011;11317;51.072;17.036;2022-11-18T08:00:53;17.92;;;8.68;;
22298;SDS011;11317;51.072;17.036;2022-11-18T08:03:23;23.30;;;9.18;;
22298;SDS011;11317;51.072;17.036;2022-11-18T08:06:02;12.35;;;6.45;;
22298;SDS011;11317;51.072;17.036;2022-11-18T08:08:28;14.90;;;7.65;;
22298;SDS011;11317;51.072;17.036;2022-11-18T08:10:55;16.77;;;8.38;;
22298;SDS011;11317;51.072;17.036;2022-11-18T08:13:22;15.90;;;7.97;;
22298;SDS011;11317;51.072;17.036;2022-11-18T08:15:49;19.92;;;9.13;;
22298;SDS011;11317;51.072;17.036;2022-11-18T08:18:16;23.83;;;9.95;;
22298;SDS011;11317;51.072;17.036;2022-11-18T08:20:42;20.00;;;9.48;;
22298;SDS011;11317;51.072;17.036;2022-11-18T08:23:12;18.10;;;7.88;;
22298;SDS011;11317;51.072;17.036;2022-11-18T08:25:38;18.83;;;9.75;;
22298;SDS011;11317;51.072;17.036;2022-11-18T08:28:05;18.95;;;8.13;;
22298;SDS011;11317;51.072;17.036;2022-11-18T08:30:34;18.23;;;8.73;;
22298;SDS011;11317;51.072;17.036;2022-11-18T08:33:01;18.52;;;8.52;;
22298;SDS011;11317;51.072;17.036;2022-11-18T08:35:27;17.85;;;8.13;;
22298;SDS011;11317;51.072;17.036;2022-11-18T08:37:54;16.50;;;8.77;;
22298;SDS011;11317;51.072;17.036;2022-11-18T08:40:20;19.77;;;8.88;;
22298;SDS011;11317;51.072;17.036;2022-11-18T08:42:46;18.17;;;9.93;;
22298;SDS011;11317;51.072;17.036;2022-11-18T08:45:12;18.27;;;9.02;;
22298;SDS011;11317;51.072;17.036;2022-11-18T08:47:37;18.08;;;8.77;;
22298;SDS011;11317;51.072;17.036;2022-11-18T08:50:04;21.38;;;9.90;;
22298;SDS011;11317;51.072;17.036;2022-11-18T08:52:31;19.75;;;8.38;;
22298;SDS011;11317;51.072;17.036;2022-11-18T08:54:57;24.50;;;8.82;;
22298;SDS011;11317;51.072;17.036;2022-11-18T08:57:23;19.08;;;8.48;;
22298;SDS011;11317;51.072;17.036;2022-11-18T08:59:49;19.90;;;9.23;;
22298;SDS011;11317;51.072;17.036;2022-11-18T09:02:16;16.63;;;9.43;;
22298;SDS011;11317;51.072;17.036;2022-11-18T09:04:45;19.95;;;9.63;;
22298;SDS011;11317;51.072;17.036;2022-11-18T09:07:11;19.25;;;9.13;;
22298;SDS011;11317;51.072;17.036;2022-11-18T09:09:37;17.95;;;9.23;;
22298;SDS011;11317;51.072;17.036;2022-11-18T09:12:03;20.08;;;9.25;;
22298;SDS011;11317;51.072;17.036;2022-11-18T09:14:30;18.40;;;9.30;;
22298;SDS011;11317;51.072;17.036;2022-11-18T09:16:55;19.35;;;9.48;;
22298;SDS011;11317;51.072;17.036;2022-11-18T09:19:21;19.25;;;8.63;;
22298;SDS011;11317;51.072;17.036;2022-11-18T09:21:48;19.50;;;10.05;;
22298;SDS011;11317;51.072;17.036;2022-11-18T09:24:14;19.35;;;10.13;;
22298;SDS011;11317;51.072;17.036;2022-11-18T09:26:41;21.92;;;10.60;;
22298;SDS011;11317;51.072;17.036;2022-11-18T09:29:07;20.75;;;9.23;;
22298;SDS011;11317;51.072;17.036;2022-11-18T09:31:33;19.13;;;9.65;;
22298;SDS011;11317;51.072;17.036;2022-11-18T09:33:59;20.15;;;9.77;;
22298;SDS011;11317;51.072;17.036;2022-11-18T09:36:25;20.52;;;10.63;;
22298;SDS011;11317;51.072;17.036;2022-11-18T09:38:51;19.50;;;10.15;;
22298;SDS011;11317;51.072;17.036;2022-11-18T09:46:59;24.17;;;10.13;;
22298;SDS011;11317;51.072;17.036;2022-11-18T09:49:34;19.85;;;9.95;;
22298;SDS011;11317;51.072;17.036;2022-11-18T09:54:42;17.83;;;9.55;;
22298;SDS011;11317;51.072;17.036;2022-11-18T09:57:23;17.25;;;9.05;;
22298;SDS011;11317;51.072;17.036;2022-11-18T09:59:52;21.63;;;9.57;;
22298;SDS011;11317;51.072;17.036;2022-11-18T10:04:45;22.33;;;9.73;;
22298;SDS011;11317;51.072;17.036;2022-11-18T10:07:15;18.30;;;9.30;;
22298;SDS011;11317;51.072;17.036;2022-11-18T10:10:09;19.38;;;9.77;;
22298;SDS011;11317;51.072;17.036;2022-11-18T10:12:44;19.55;;;8.88;;
22298;SDS011;11317;51.072;17.036;2022-11-18T10:15:31;18.75;;;9.90;;
22298;SDS011;11317;51.072;17.036;2022-11-18T10:23:46;20.20;;;9.15;;
22298;SDS011;11317;51.072;17.036;2022-11-18T10:29:19;20.23;;;8.60;;
22298;SDS011;11317;51.072;17.036;2022-11-18T10:32:02;20.48;;;9.85;;
22298;SDS011;11317;51.072;17.036;2022-11-18T10:34:33;17.55;;;9.23;;
22298;SDS011;11317;51.072;17.036;2022-11-18T10:37:21;15.90;;;8.32;;
22298;SDS011;11317;51.072;17.036;2022-11-18T10:39:50;17.15;;;8.00;;
22298;SDS011;11317;51.072;17.036;2022-11-18T10:42:42;17.65;;;8.35;;
22298;SDS011;11317;51.072;17.036;2022-11-18T10:45:14;15.48;;;8.80;;
22298;SDS011;11317;51.072;17.036;2022-11-18T10:47:39;17.80;;;8.90;;
22298;SDS011;11317;51.072;17.036;2022-11-18T10:52:54;15.65;;;8.05;;
22298;SDS011;11317;51.072;17.036;2022-11-18T10:55:21;16.88;;;8.73;;
22298;SDS011;11317;51.072;17.036;2022-11-18T10:57:49;15.43;;;8.52;;
22298;SDS011;11317;51.072;17.036;2022-11-18T11:00:36;15.80;;;7.90;;
22298;SDS011;11317;51.072;17.036;2022-11-18T11:08:51;15.82;;;8.43;;
22298;SDS011;11317;51.072;17.036;2022-11-18T11:11:35;23.73;;;10.10;;
22298;SDS011;11317;51.072;17.036;2022-11-18T11:14:34;17.90;;;8.45;;
22298;SDS011;11317;51.072;17.036;2022-11-18T11:22:28;19.25;;;9.00;;
22298;SDS011;11317;51.072;17.036;2022-11-18T11:24:54;19.20;;;9.10;;
22298;SDS011;11317;51.072;17.036;2022-11-18T11:30:17;18.02;;;9.55;;
22298;SDS011;11317;51.072;17.036;2022-11-18T11:35:19;20.02;;;9.77;;
22298;SDS011;11317;51.072;17.036;2022-11-18T11:38:00;22.33;;;9.10;;
22298;SDS011;11317;51.072;17.036;2022-11-18T11:40:34;19.13;;;9.35;;
22298;SDS011;11317;51.072;17.036;2022-11-18T11:48:52;19.88;;;8.80;;
22298;SDS011;11317;51.072;17.036;2022-11-18T11:51:53;16.63;;;8.43;;
22298;SDS011;11317;51.072;17.036;2022-11-18T11:54:34;20.95;;;8.80;;
22298;SDS011;11317;51.072;17.036;2022-11-18T11:57:27;19.65;;;9.18;;
22298;SDS011;11317;51.072;17.036;2022-11-18T12:00:38;20.02;;;8.57;;
22298;SDS011;11317;51.072;17.036;2022-11-18T12:05:50;25.23;;;10.20;;
22298;SDS011;11317;51.072;17.036;2022-11-18T12:08:23;18.77;;;9.98;;
22298;SDS011;11317;51.072;17.036;2022-11-18T12:18:45;19.50;;;9.63;;
22298;SDS011;11317;51.072;17.036;2022-11-18T12:30:16;23.35;;;9.25;;
22298;SDS011;11317;51.072;17.036;2022-11-18T12:42:34;27.95;;;12.15;;
22298;SDS011;11317;51.072;17.036;2022-11-18T12:50:59;26.60;;;12.40;;
22298;SDS011;11317;51.072;17.036;2022-11-18T12:53:45;25.90;;;11.20;;
22298;SDS011;11317;51.072;17.036;2022-11-18T12:58:58;19.88;;;9.90;;
22298;SDS011;11317;51.072;17.036;2022-11-18T13:01:26;21.45;;;9.20;;
22298;SDS011;11317;51.072;17.036;2022-11-18T13:06:39;17.42;;;8.60;;
22298;SDS011;11317;51.072;17.036;2022-11-18T13:09:39;20.63;;;9.23;;
22298;SDS011;11317;51.072;17.036;2022-11-18T13:12:06;24.98;;;9.43;;
22298;SDS011;11317;51.072;17.036;2022-11-18T13:14:41;15.77;;;8.50;;
22298;SDS011;11317;51.072;17.036;2022-11-18T13:20:28;15.05;;;7.07;;
22298;SDS011;11317;51.072;17.036;2022-11-18T13:23:00;14.20;;;6.97;;
22298;SDS011;11317;51.072;17.036;2022-11-18T13:25:48;14.75;;;6.60;;
22298;SDS011;11317;51.072;17.036;2022-11-18T13:28:30;15.43;;;7.05;;
22298;SDS011;11317;51.072;17.036;2022-11-18T13:33:32;13.15;;;6.03;;
22298;SDS011;11317;51.072;17.036;2022-11-18T13:38:27;13.57;;;6.55;;
22298;SDS011;11317;51.072;17.036;2022-11-18T13:40:54;10.80;;;5.20;;
22298;SDS011;11317;51.072;17.036;2022-11-18T13:43:29;10.68;;;5.13;;
22298;SDS011;11317;51.072;17.036;2022-11-18T13:45:57;11.77;;;5.05;;
22298;SDS011;11317;51.072;17.036;2022-11-18T13:48:24;8.90;;;4.78;;
22298;SDS011;11317;51.072;17.036;2022-11-18T13:50:52;7.97;;;4.20;;
22298;SDS011;11317;51.072;17.036;2022-11-18T13:56:01;9.05;;;4.22;;
22298;SDS011;11317;51.072;17.036;2022-11-18T13:58:36;5.85;;;3.85;;
22298;SDS011;11317;51.072;17.036;2022-11-18T14:01:10;5.78;;;3.50;;
22298;SDS011;11317;51.072;17.036;2022-11-18T14:06:09;6.10;;;3.53;;
22298;SDS011;11317;51.072;17.036;2022-11-18T14:08:36;7.00;;;3.67;;
22298;SDS011;11317;51.072;17.036;2022-11-18T14:11:05;6.00;;;3.28;;
22298;SDS011;11317;51.072;17.036;2022-11-18T14:13:34;4.32;;;2.72;;
22298;SDS011;11317;51.072;17.036;2022-11-18T14:18:44;7.32;;;3.35;;
22298;SDS011;11317;51.072;17.036;2022-11-18T14:21:12;6.18;;;3.22;;
22298;SDS011;11317;51.072;17.036;2022-11-18T14:23:49;6.03;;;3.40;;
22298;SDS011;11317;51.072;17.036;2022-11-18T14:26:18;5.80;;;2.97;;
22298;SDS011;11317;51.072;17.036;2022-11-18T14:28:53;4.70;;;2.67;;
22298;SDS011;11317;51.072;17.036;2022-11-18T14:31:22;5.40;;;3.03;;
22298;SDS011;11317;51.072;17.036;2022-11-18T14:36:48;5.40;;;3.13;;
22298;SDS011;11317;51.072;17.036;2022-11-18T14:39:22;7.68;;;3.00;;
22298;SDS011;11317;51.072;17.036;2022-11-18T14:41:48;7.47;;;3.03;;
22298;SDS011;11317;51.072;17.036;2022-11-18T14:44:15;4.32;;;2.90;;
22298;SDS011;11317;51.072;17.036;2022-11-18T14:46:43;4.40;;;2.30;;
22298;SDS011;11317;51.072;17.036;2022-11-18T14:49:12;6.32;;;2.65;;
22298;SDS011;11317;51.072;17.036;2022-11-18T14:51:44;4.95;;;2.97;;
22298;SDS011;11317;51.072;17.036;2022-11-18T14:54:13;9.50;;;3.88;;
22298;SDS011;11317;51.072;17.036;2022-11-18T14:56:40;11.73;;;5.00;;
22298;SDS011;11317;51.072;17.036;2022-11-18T14:59:11;13.68;;;5.25;;
22298;SDS011;11317;51.072;17.036;2022-11-18T15:01:38;11.07;;;4.70;;
22298;SDS011;11317;51.072;17.036;2022-11-18T15:04:06;11.40;;;4.47;;
22298;SDS011;11317;51.072;17.036;2022-11-18T15:06:32;11.57;;;4.30;;
22298;SDS011;11317;51.072;17.036;2022-11-18T15:08:58;8.73;;;3.40;;
22298;SDS011;11317;51.072;17.036;2022-11-18T15:11:24;6.13;;;3.17;;
22298;SDS011;11317;51.072;17.036;2022-11-18T15:13:51;5.78;;;3.28;;
22298;SDS011;11317;51.072;17.036;2022-11-18T15:16:24;6.32;;;3.72;;
22298;SDS011;11317;51.072;17.036;2022-11-18T15:18:53;5.68;;;3.85;;
22298;SDS011;11317;51.072;17.036;2022-11-18T15:21:20;7.70;;;3.67;;
22298;SDS011;11317;51.072;17.036;2022-11-18T15:23:48;5.85;;;3.17;;
22298;SDS011;11317;51.072;17.036;2022-11-18T15:26:18;8.93;;;3.95;;
22298;SDS011;11317;51.072;17.036;2022-11-18T15:28:47;6.80;;;3.40;;
22298;SDS011;11317;51.072;17.036;2022-11-18T15:31:14;10.00;;;3.75;;
22298;SDS011;11317;51.072;17.036;2022-11-18T15:33:41;3.80;;;3.20;;
22298;SDS011;11317;51.072;17.036;2022-11-18T15:36:14;6.50;;;3.72;;
22298;SDS011;11317;51.072;17.036;2022-11-18T15:38:41;5.45;;;3.05;;
22298;SDS011;11317;51.072;17.036;2022-11-18T15:41:12;6.47;;;3.28;;
22298;SDS011;11317;51.072;17.036;2022-11-18T15:43:41;12.75;;;3.63;;
22298;SDS011;11317;51.072;17.036;2022-11-18T15:46:07;7.63;;;3.67;;
22298;SDS011;11317;51.072;17.036;2022-11-18T15:48:33;6.43;;;3.45;;
22298;SDS011;11317;51.072;17.036;2022-11-18T15:50:59;5.80;;;3.50;;
22298;SDS011;11317;51.072;17.036;2022-11-18T15:53:25;6.47;;;3.72;;
22298;SDS011;11317;51.072;17.036;2022-11-18T15:55:52;7.30;;;3.85;;
22298;SDS011;11317;51.072;17.036;2022-11-18T15:58:51;5.40;;;3.90;;
22298;SDS011;11317;51.072;17.036;2022-11-18T16:01:18;9.48;;;3.92;;
22298;SDS011;11317;51.072;17.036;2022-11-18T16:03:44;7.82;;;4.20;;
22298;SDS011;11317;51.072;17.036;2022-11-18T16:06:10;8.43;;;4.53;;
22298;SDS011;11317;51.072;17.036;2022-11-18T16:08:36;11.27;;;4.93;;
22298;SDS011;11317;51.072;17.036;2022-11-18T16:11:02;9.00;;;5.13;;
22298;SDS011;11317;51.072;17.036;2022-11-18T16:13:47;9.20;;;4.30;;
22298;SDS011;11317;51.072;17.036;2022-11-18T16:16:17;6.93;;;3.97;;
22298;SDS011;11317;51.072;17.036;2022-11-18T16:21:12;10.20;;;4.53;;
22298;SDS011;11317;51.072;17.036;2022-11-18T16:23:39;8.32;;;3.97;;
22298;SDS011;11317;51.072;17.036;2022-11-18T16:26:05;9.48;;;4.88;;
22298;SDS011;11317;51.072;17.036;2022-11-18T16:28:31;11.80;;;5.07;;
22298;SDS011;11317;51.072;17.036;2022-11-18T16:30:57;12.20;;;4.75;;
22298;SDS011;11317;51.072;17.036;2022-11-18T16:33:43;9.85;;;4.60;;
22298;SDS011;11317;51.072;17.036;2022-11-18T16:36:09;9.77;;;4.30;;
22298;SDS011;11317;51.072;17.036;2022-11-18T16:38:35;8.60;;;4.47;;
22298;SDS011;11317;51.072;17.036;2022-11-18T16:41:01;10.35;;;5.20;;
22298;SDS011;11317;51.072;17.036;2022-11-18T16:43:47;8.32;;;4.18;;
22298;SDS011;11317;51.072;17.036;2022-11-18T16:46:13;7.50;;;4.70;;
22298;SDS011;11317;51.072;17.036;2022-11-18T16:48:40;8.20;;;4.82;;
22298;SDS011;11317;51.072;17.036;2022-11-18T16:53:43;13.32;;;6.07;;
22298;SDS011;11317;51.072;17.036;2022-11-18T16:56:22;12.73;;;5.85;;
22298;SDS011;11317;51.072;17.036;2022-11-18T16:58:50;14.88;;;5.93;;
22298;SDS011;11317;51.072;17.036;2022-11-18T17:01:26;11.05;;;5.03;;
22298;SDS011;11317;51.072;17.036;2022-11-18T17:03:55;8.75;;;5.32;;
22298;SDS011;11317;51.072;17.036;2022-11-18T17:06:22;9.23;;;5.30;;
22298;SDS011;11317;51.072;17.036;2022-11-18T17:08:49;12.75;;;5.40;;